Bretagne — FNBR — position and weather

sailwx.info

Track history (hours):
 
Tides and Currents Weather Stations Pressure Air Temp Water Temp Dewpoint Dewpoint Depression Visibility Wind Speed Wind Dir Waves Ship Positions

Bretagne

Operator: Brittany Ferries

Last reported at 2017-Apr-24 05:07 UTC. Time now 2017-Apr-24 13:21 UTC.
Position N 48°47' W 002°12'.

Length 151 m; beam 27 m.

Type: Ship. MMSI: 227286000.

Date/timePositionNaut miles runAvg speedWind from/ knotsBaromVisibWave heightAir tempDewpointWater temp
2017-Apr-24 05:07N 48°47' W 002°12'515.8
2017-Apr-24 04:47N 48°51' W 002°17'2212.9
2017-Apr-24 03:04N 49°13' W 002°22'211.4
2017-Apr-24 02:55N 49°15' W 002°22'511.5
2017-Apr-24 02:29N 49°20' W 002°20'2612.5
2017-Apr-24 00:23N 49°43' W 002°02'914.4
2017-Apr-23 23:48N 49°50' W 001°54'1014.1
2017-Apr-23 23:04N 49°59' W 001°46'517.3
2017-Apr-23 22:47N 50°03' W 001°42'917.1
2017-Apr-23 22:14N 50°11' W 001°34'616.5
2017-Apr-23 21:53N 50°16' W 001°29'616.3
2017-Apr-23 21:30N 50°21' W 001°24'916.1
2017-Apr-23 20:59N 50°28' W 001°16'715.8
2017-Apr-23 20:30N 50°34' W 001°10'714.4
2017-Apr-23 20:00N 50°40' W 001°04'611.7
2017-Apr-23 19:31N 50°46' W 001°05'3 5.4
2017-Apr-23 19:01N 50°49' W 001°06'0 0.0
2017-Apr-23 18:29N 50°49' W 001°06'0 0.0
2017-Apr-23 17:59N 50°49' W 001°06'0 0.0
2017-Apr-23 17:29N 50°49' W 001°06'0 0.0
2017-Apr-23 17:00N 50°49' W 001°06'2 4.5
2017-Apr-23 16:31N 50°46' W 001°06'714.9
2017-Apr-23 16:01N 50°41' W 000°57'1019.6
2017-Apr-23 15:31N 50°33' W 001°05'1020.6
2017-Apr-23 15:00N 50°25' W 001°16'1020.1
2017-Apr-23 14:30N 50°17' W 001°25'9510.2
2017-Apr-23 05:12N 48°47' W 002°11'418.9
2017-Apr-23 05:01N 48°49' W 002°15'711.2
2017-Apr-23 04:24N 48°55' W 002°21'2711.3
2017-Apr-23 02:02N 49°21' W 002°19'111.9
2017-Apr-23 01:59N 49°22' W 002°18'7115.3
2017-Apr-22 21:19N 50°24' W 001°23'516.5
2017-Apr-22 21:00N 50°28' W 001°18'816.6
2017-Apr-22 20:30N 50°34' W 001°10'815.3
2017-Apr-22 20:00N 50°41' W 001°03'611.3
2017-Apr-22 19:30N 50°46' W 001°05'3 5.3
2017-Apr-22 19:00N 50°49' W 001°06'0 0.0
2017-Apr-22 18:30N 50°49' W 001°06'0 0.0
2017-Apr-22 18:00N 50°49' W 001°06'0 0.0
2017-Apr-22 17:30N 50°49' W 001°06'0 0.0
2017-Apr-22 17:00N 50°49' W 001°06'2 3.1
2017-Apr-22 16:31N 50°47' W 001°06'713.4
2017-Apr-22 16:00N 50°41' W 001°03'917.9
2017-Apr-22 15:31N 50°34' W 001°11'1420.3
2017-Apr-22 14:49N 50°22' W 001°23'62 4.6
2017-Apr-22 01:22N 49°29' W 002°13'3114.1
2017-Apr-21 23:10N 49°57' W 001°50'517.1
2017-Apr-21 22:51N 50°01' W 001°46'717.0
2017-Apr-21 22:28N 50°07' W 001°42'2216.2
2017-Apr-21 21:08N 50°26' W 001°25'215.3
2017-Apr-21 21:00N 50°27' W 001°23'815.6
2017-Apr-21 20:30N 50°32' W 001°13'917.3
2017-Apr-21 20:00N 50°39' W 001°05'510.8
2017-Apr-21 19:30N 50°44' W 001°05'4 8.8
2017-Apr-21 19:01N 50°49' W 001°06'0 0.2
2017-Apr-21 18:29N 50°49' W 001°06'0 0.0
2017-Apr-21 17:59N 50°49' W 001°06'0 0.0
2017-Apr-21 17:29N 50°49' W 001°06'0 0.7
2017-Apr-21 17:01N 50°49' W 001°06'5 9.7
2017-Apr-21 16:31N 50°44' W 001°04'612.0
2017-Apr-21 16:01N 50°38' W 001°05'816.6
2017-Apr-21 15:30N 50°31' W 001°13'816.7
2017-Apr-21 15:00N 50°24' W 001°20'1116.4
2017-Apr-21 14:19N 50°15' W 001°30'1518.3
2017-Apr-21 13:30N 50°03' W 001°43'918.9
2017-Apr-21 13:01N 49°54' W 001°50'918.8
2017-Apr-21 12:31N 49°46' W 001°58'49 6.0
2017-Apr-21 04:19N 49°00' W 002°22'515.7
2017-Apr-21 04:00N 49°05' W 002°22'1012.2
2017-Apr-21 03:11N 49°15' W 002°21'210.7
2017-Apr-21 03:00N 49°17' W 002°21'510.6
2017-Apr-21 02:30N 49°22' W 002°18'3612.4
2017-Apr-20 23:35N 49°54' W 001°54'515.8
2017-Apr-20 23:14N 49°59' W 001°49'2615.3
2017-Apr-20 21:32N 50°21' W 001°26'111.3
2017-Apr-20 21:26N 50°22' W 001°25'714.5
2017-Apr-20 20:59N 50°27' W 001°19'816.5
2017-Apr-20 20:31N 50°33' W 001°11'816.3
2017-Apr-20 20:01N 50°40' W 001°04'611.6
2017-Apr-20 19:30N 50°46' W 001°05'3 6.2
2017-Apr-20 19:00N 50°49' W 001°06'0 0.0
2017-Apr-20 18:30N 50°49' W 001°06'0 0.0
2017-Apr-20 18:00N 50°49' W 001°06'0 0.0
2017-Apr-20 17:30N 50°49' W 001°06'0 0.0
2017-Apr-20 17:00N 50°49' W 001°06'2 4.1
2017-Apr-20 16:30N 50°47' W 001°06'713.4
2017-Apr-20 16:01N 50°40' W 001°04'917.4
2017-Apr-20 15:30N 50°33' W 001°12'11 0.6
2017-Apr-19 21:21N 50°24' W 001°22'616.6
2017-Apr-19 21:00N 50°29' W 001°16'817.0
2017-Apr-19 20:30N 50°36' W 001°09'714.5
2017-Apr-19 20:01N 50°42' W 001°02'612.4
2017-Apr-19 19:30N 50°47' W 001°07'1 2.9
2017-Apr-19 18:59N 50°49' W 001°06'0 0.0
2017-Apr-19 18:29N 50°49' W 001°06'0 0.0
2017-Apr-19 17:59N 50°49' W 001°06'0 0.0
2017-Apr-19 17:29N 50°49' W 001°06'0 0.0
2017-Apr-19 16:59N 50°49' W 001°06'0 0.0
2017-Apr-19 16:29N 50°49' W 001°06'0 0.0
2017-Apr-19 16:00N 50°49' W 001°06'0 0.0
2017-Apr-19 15:29N 50°49' W 001°06'0 0.0
2017-Apr-19 14:59N 50°49' W 001°06'0 0.0
2017-Apr-19 14:29N 50°49' W 001°06'0 0.0
2017-Apr-19 13:29N 50°49' W 001°06'0 0.0
2017-Apr-19 12:59N 50°49' W 001°06'0 0.0
2017-Apr-19 12:29N 50°49' W 001°06'0 0.0
2017-Apr-19 11:59N 50°49' W 001°06'0 0.0
2017-Apr-19 11:29N 50°49' W 001°06'0 0.0
2017-Apr-19 10:59N 50°49' W 001°06'0 0.0
2017-Apr-19 10:29N 50°49' W 001°06'0 0.0
2017-Apr-19 09:59N 50°49' W 001°06'0 0.0
2017-Apr-19 09:29N 50°49' W 001°06'0 0.0
2017-Apr-19 08:59N 50°49' W 001°06'0 0.0
2017-Apr-19 08:29N 50°49' W 001°06'0 0.0
2017-Apr-19 07:59N 50°49' W 001°06'0 0.0
2017-Apr-19 07:29N 50°49' W 001°06'0 0.0
2017-Apr-19 07:01N 50°49' W 001°06'0 0.3
2017-Apr-19 06:30N 50°49' W 001°06'4 8.3
2017-Apr-19 06:01N 50°45' W 001°05'714.4
2017-Apr-19 05:31N 50°37' W 001°07'815.8
2017-Apr-19 05:01N 50°31' W 001°14'8 0.3
2017-Apr-17 21:49N 50°24' W 001°20'414.0
2017-Apr-17 21:31N 50°27' W 001°16'714.1
2017-Apr-17 21:01N 50°33' W 001°11'714.6
2017-Apr-17 20:30N 50°40' W 001°04'5 9.5
2017-Apr-17 20:00N 50°44' W 001°05'4 9.0
2017-Apr-17 19:30N 50°48' W 001°07'1 1.6
2017-Apr-17 18:59N 50°49' W 001°06'0 0.0
2017-Apr-17 18:29N 50°49' W 001°06'0 0.0
2017-Apr-17 17:59N 50°49' W 001°06'0 0.0
2017-Apr-17 17:29N 50°49' W 001°06'0 0.0
2017-Apr-17 17:00N 50°49' W 001°06'4 7.3
2017-Apr-17 16:31N 50°45' W 001°05'511.0
2017-Apr-17 16:01N 50°40' W 001°05'814.7
2017-Apr-17 15:30N 50°33' W 001°11'41 2.6
2017-Apr-16 23:36N 49°59' W 001°47'1013.9
2017-Apr-16 22:51N 50°07' W 001°38'514.1
2017-Apr-16 22:29N 50°12' W 001°33'714.3
2017-Apr-16 22:00N 50°17' W 001°27'714.6
2017-Apr-16 21:30N 50°23' W 001°21'714.6
2017-Apr-16 21:00N 50°29' W 001°14'714.6
2017-Apr-16 20:30N 50°35' W 001°07'612.8
2017-Apr-16 20:00N 50°41' W 001°03'611.7
2017-Apr-16 19:30N 50°46' W 001°06'2 4.4
2017-Apr-16 18:59N 50°49' W 001°06'0 0.0
2017-Apr-16 18:29N 50°49' W 001°06'0 0.0
2017-Apr-16 17:59N 50°49' W 001°06'0 0.0
2017-Apr-16 17:29N 50°49' W 001°06'0 0.0
2017-Apr-16 17:01N 50°49' W 001°06'3 5.2
2017-Apr-16 16:31N 50°46' W 001°06'612.1
2017-Apr-16 16:00N 50°40' W 001°04'713.4
2017-Apr-16 15:31N 50°35' W 001°10'714.7
2017-Apr-16 15:00N 50°28' W 001°16'815.6
2017-Apr-16 14:30N 50°22' W 001°23'10616.3
2017-Apr-16 07:58N 48°38' W 002°02'0 0.0
2017-Apr-16 06:02N 48°38' W 002°02'0 2.1
2017-Apr-16 05:55N 48°38' W 002°02'815.1
2017-Apr-16 05:24N 48°45' W 002°09'9013.0
2017-Apr-15 22:29N 50°12' W 001°35'714.1
2017-Apr-15 22:00N 50°17' W 001°29'714.4
2017-Apr-15 21:30N 50°23' W 001°22'714.4
2017-Apr-15 21:01N 50°29' W 001°15'714.2
2017-Apr-15 20:31N 50°35' W 001°09'713.4
2017-Apr-15 20:00N 50°40' W 001°04'611.5
2017-Apr-15 19:30N 50°46' W 001°05'3 5.3
2017-Apr-15 18:59N 50°49' W 001°06'0 0.0
2017-Apr-15 18:29N 50°49' W 001°06'0 0.0
2017-Apr-15 17:59N 50°49' W 001°06'0 0.0
2017-Apr-15 17:29N 50°49' W 001°06'0 0.0
2017-Apr-15 17:00N 50°49' W 001°06'3 5.9
2017-Apr-15 16:30N 50°46' W 001°05'611.3
2017-Apr-15 16:00N 50°40' W 001°04'714.3
2017-Apr-15 15:30N 50°34' W 001°10'714.1
2017-Apr-15 15:00N 50°28' W 001°16'815.2
2017-Apr-15 14:30N 50°22' W 001°23'9218.2
2017-Apr-15 09:25N 48°52' W 001°59'92 7.9
2017-Apr-14 21:41N 50°22' W 001°25'314.1
2017-Apr-14 21:30N 50°24' W 001°22'713.8
2017-Apr-14 21:00N 50°29' W 001°15'713.4
2017-Apr-14 20:30N 50°35' W 001°09'612.8
2017-Apr-14 20:00N 50°40' W 001°04'611.4
2017-Apr-14 19:30N 50°46' W 001°05'3 5.7
2017-Apr-14 19:00N 50°49' W 001°06'0 0.2
2017-Apr-14 18:29N 50°49' W 001°06'0 0.0
2017-Apr-14 17:59N 50°49' W 001°06'0 0.0
2017-Apr-14 17:29N 50°49' W 001°06'0 0.3
2017-Apr-14 17:00N 50°49' W 001°06'4 8.4
2017-Apr-14 16:30N 50°45' W 001°04'4 8.7
2017-Apr-14 16:01N 50°40' W 001°04'713.6
2017-Apr-14 15:30N 50°34' W 001°09'815.8
2017-Apr-14 15:00N 50°28' W 001°16'2918.0
2017-Apr-14 13:24N 50°04' W 001°41'5118.8
2017-Apr-14 10:42N 49°15' W 001°60'1121.2
2017-Apr-14 10:10N 49°05' W 001°51'619.3
2017-Apr-14 09:53N 48°60' W 001°54'820.0
2017-Apr-14 09:29N 48°53' W 001°59'919.7
2017-Apr-14 09:00N 48°43' W 002°01'5 1.7
2017-Apr-14 06:10N 48°38' W 002°02'1 3.7
2017-Apr-14 05:59N 48°39' W 002°03'  
Track history (hours):
 
Tides and Currents Weather Stations Pressure Air Temp Water Temp Dewpoint Dewpoint Depression Visibility Wind Speed Wind Dir Waves Ship Positions

Bretagne

Operator: Brittany Ferries

Last reported at 2017-Apr-24 05:07 UTC. Time now 2017-Apr-24 13:21 UTC.
Position N 48°47' W 002°12'.

Length 151 m; beam 27 m.

Type: Ship. MMSI: 227286000.

Date/timePositionNaut miles runAvg speedWind from/ knotsBaromVisibWave heightAir tempDewpointWater temp
2017-Apr-24 05:07N 48°47' W 002°12'515.8
2017-Apr-24 04:47N 48°51' W 002°17'2212.9
2017-Apr-24 03:04N 49°13' W 002°22'211.4
2017-Apr-24 02:55N 49°15' W 002°22'511.5
2017-Apr-24 02:29N 49°20' W 002°20'2612.5
2017-Apr-24 00:23N 49°43' W 002°02'914.4
2017-Apr-23 23:48N 49°50' W 001°54'1014.1
2017-Apr-23 23:04N 49°59' W 001°46'517.3
2017-Apr-23 22:47N 50°03' W 001°42'917.1
2017-Apr-23 22:14N 50°11' W 001°34'616.5
2017-Apr-23 21:53N 50°16' W 001°29'616.3
2017-Apr-23 21:30N 50°21' W 001°24'916.1
2017-Apr-23 20:59N 50°28' W 001°16'715.8
2017-Apr-23 20:30N 50°34' W 001°10'714.4
2017-Apr-23 20:00N 50°40' W 001°04'611.7
2017-Apr-23 19:31N 50°46' W 001°05'3 5.4
2017-Apr-23 19:01N 50°49' W 001°06'0 0.0
2017-Apr-23 18:29N 50°49' W 001°06'0 0.0
2017-Apr-23 17:59N 50°49' W 001°06'0 0.0
2017-Apr-23 17:29N 50°49' W 001°06'0 0.0
2017-Apr-23 17:00N 50°49' W 001°06'2 4.5
2017-Apr-23 16:31N 50°46' W 001°06'714.9
2017-Apr-23 16:01N 50°41' W 000°57'1019.6
2017-Apr-23 15:31N 50°33' W 001°05'1020.6
2017-Apr-23 15:00N 50°25' W 001°16'1020.1
2017-Apr-23 14:30N 50°17' W 001°25'9510.2
2017-Apr-23 05:12N 48°47' W 002°11'418.9
2017-Apr-23 05:01N 48°49' W 002°15'711.2
2017-Apr-23 04:24N 48°55' W 002°21'2711.3
2017-Apr-23 02:02N 49°21' W 002°19'111.9
2017-Apr-23 01:59N 49°22' W 002°18'7115.3
2017-Apr-22 21:19N 50°24' W 001°23'516.5
2017-Apr-22 21:00N 50°28' W 001°18'816.6
2017-Apr-22 20:30N 50°34' W 001°10'815.3
2017-Apr-22 20:00N 50°41' W 001°03'611.3
2017-Apr-22 19:30N 50°46' W 001°05'3 5.3
2017-Apr-22 19:00N 50°49' W 001°06'0 0.0
2017-Apr-22 18:30N 50°49' W 001°06'0 0.0
2017-Apr-22 18:00N 50°49' W 001°06'0 0.0
2017-Apr-22 17:30N 50°49' W 001°06'0 0.0
2017-Apr-22 17:00N 50°49' W 001°06'2 3.1
2017-Apr-22 16:31N 50°47' W 001°06'713.4
2017-Apr-22 16:00N 50°41' W 001°03'917.9
2017-Apr-22 15:31N 50°34' W 001°11'1420.3
2017-Apr-22 14:49N 50°22' W 001°23'62 4.6
2017-Apr-22 01:22N 49°29' W 002°13'3114.1
2017-Apr-21 23:10N 49°57' W 001°50'517.1
2017-Apr-21 22:51N 50°01' W 001°46'717.0
2017-Apr-21 22:28N 50°07' W 001°42'2216.2
2017-Apr-21 21:08N 50°26' W 001°25'215.3
2017-Apr-21 21:00N 50°27' W 001°23'815.6
2017-Apr-21 20:30N 50°32' W 001°13'917.3
2017-Apr-21 20:00N 50°39' W 001°05'510.8
2017-Apr-21 19:30N 50°44' W 001°05'4 8.8
2017-Apr-21 19:01N 50°49' W 001°06'0 0.2
2017-Apr-21 18:29N 50°49' W 001°06'0 0.0
2017-Apr-21 17:59N 50°49' W 001°06'0 0.0
2017-Apr-21 17:29N 50°49' W 001°06'0 0.7
2017-Apr-21 17:01N 50°49' W 001°06'5 9.7
2017-Apr-21 16:31N 50°44' W 001°04'612.0
2017-Apr-21 16:01N 50°38' W 001°05'816.6
2017-Apr-21 15:30N 50°31' W 001°13'816.7
2017-Apr-21 15:00N 50°24' W 001°20'1116.4
2017-Apr-21 14:19N 50°15' W 001°30'1518.3
2017-Apr-21 13:30N 50°03' W 001°43'918.9
2017-Apr-21 13:01N 49°54' W 001°50'918.8
2017-Apr-21 12:31N 49°46' W 001°58'49 6.0
2017-Apr-21 04:19N 49°00' W 002°22'515.7
2017-Apr-21 04:00N 49°05' W 002°22'1012.2
2017-Apr-21 03:11N 49°15' W 002°21'210.7
2017-Apr-21 03:00N 49°17' W 002°21'510.6
2017-Apr-21 02:30N 49°22' W 002°18'3612.4
2017-Apr-20 23:35N 49°54' W 001°54'515.8
2017-Apr-20 23:14N 49°59' W 001°49'2615.3
2017-Apr-20 21:32N 50°21' W 001°26'111.3
2017-Apr-20 21:26N 50°22' W 001°25'714.5
2017-Apr-20 20:59N 50°27' W 001°19'816.5
2017-Apr-20 20:31N 50°33' W 001°11'816.3
2017-Apr-20 20:01N 50°40' W 001°04'611.6
2017-Apr-20 19:30N 50°46' W 001°05'3 6.2
2017-Apr-20 19:00N 50°49' W 001°06'0 0.0
2017-Apr-20 18:30N 50°49' W 001°06'0 0.0
2017-Apr-20 18:00N 50°49' W 001°06'0 0.0
2017-Apr-20 17:30N 50°49' W 001°06'0 0.0
2017-Apr-20 17:00N 50°49' W 001°06'2 4.1
2017-Apr-20 16:30N 50°47' W 001°06'713.4
2017-Apr-20 16:01N 50°40' W 001°04'917.4
2017-Apr-20 15:30N 50°33' W 001°12'11 0.6
2017-Apr-19 21:21N 50°24' W 001°22'616.6
2017-Apr-19 21:00N 50°29' W 001°16'817.0
2017-Apr-19 20:30N 50°36' W 001°09'714.5
2017-Apr-19 20:01N 50°42' W 001°02'612.4
2017-Apr-19 19:30N 50°47' W 001°07'1 2.9
2017-Apr-19 18:59N 50°49' W 001°06'0 0.0
2017-Apr-19 18:29N 50°49' W 001°06'0 0.0
2017-Apr-19 17:59N 50°49' W 001°06'0 0.0
2017-Apr-19 17:29N 50°49' W 001°06'0 0.0
2017-Apr-19 16:59N 50°49' W 001°06'0 0.0
2017-Apr-19 16:29N 50°49' W 001°06'0 0.0
2017-Apr-19 16:00N 50°49' W 001°06'0 0.0
2017-Apr-19 15:29N 50°49' W 001°06'0 0.0
2017-Apr-19 14:59N 50°49' W 001°06'0 0.0
2017-Apr-19 14:29N 50°49' W 001°06'0 0.0
2017-Apr-19 13:29N 50°49' W 001°06'0 0.0
2017-Apr-19 12:59N 50°49' W 001°06'0 0.0
2017-Apr-19 12:29N 50°49' W 001°06'0 0.0
2017-Apr-19 11:59N 50°49' W 001°06'0 0.0
2017-Apr-19 11:29N 50°49' W 001°06'0 0.0
2017-Apr-19 10:59N 50°49' W 001°06'0 0.0
2017-Apr-19 10:29N 50°49' W 001°06'0 0.0
2017-Apr-19 09:59N 50°49' W 001°06'0 0.0
2017-Apr-19 09:29N 50°49' W 001°06'0 0.0
2017-Apr-19 08:59N 50°49' W 001°06'0 0.0
2017-Apr-19 08:29N 50°49' W 001°06'0 0.0
2017-Apr-19 07:59N 50°49' W 001°06'0 0.0
2017-Apr-19 07:29N 50°49' W 001°06'0 0.0
2017-Apr-19 07:01N 50°49' W 001°06'0 0.3
2017-Apr-19 06:30N 50°49' W 001°06'4 8.3
2017-Apr-19 06:01N 50°45' W 001°05'714.4
2017-Apr-19 05:31N 50°37' W 001°07'815.8
2017-Apr-19 05:01N 50°31' W 001°14'8 0.3
2017-Apr-17 21:49N 50°24' W 001°20'414.0
2017-Apr-17 21:31N 50°27' W 001°16'714.1
2017-Apr-17 21:01N 50°33' W 001°11'714.6
2017-Apr-17 20:30N 50°40' W 001°04'5 9.5
2017-Apr-17 20:00N 50°44' W 001°05'4 9.0
2017-Apr-17 19:30N 50°48' W 001°07'1 1.6
2017-Apr-17 18:59N 50°49' W 001°06'0 0.0
2017-Apr-17 18:29N 50°49' W 001°06'0 0.0
2017-Apr-17 17:59N 50°49' W 001°06'0 0.0
2017-Apr-17 17:29N 50°49' W 001°06'0 0.0
2017-Apr-17 17:00N 50°49' W 001°06'4 7.3
2017-Apr-17 16:31N 50°45' W 001°05'511.0
2017-Apr-17 16:01N 50°40' W 001°05'814.7
2017-Apr-17 15:30N 50°33' W 001°11'41 2.6
2017-Apr-16 23:36N 49°59' W 001°47'1013.9
2017-Apr-16 22:51N 50°07' W 001°38'514.1
2017-Apr-16 22:29N 50°12' W 001°33'714.3
2017-Apr-16 22:00N 50°17' W 001°27'714.6
2017-Apr-16 21:30N 50°23' W 001°21'714.6
2017-Apr-16 21:00N 50°29' W 001°14'714.6
2017-Apr-16 20:30N 50°35' W 001°07'612.8
2017-Apr-16 20:00N 50°41' W 001°03'611.7
2017-Apr-16 19:30N 50°46' W 001°06'2 4.4
2017-Apr-16 18:59N 50°49' W 001°06'0 0.0
2017-Apr-16 18:29N 50°49' W 001°06'0 0.0
2017-Apr-16 17:59N 50°49' W 001°06'0 0.0
2017-Apr-16 17:29N 50°49' W 001°06'0 0.0
2017-Apr-16 17:01N 50°49' W 001°06'3 5.2
2017-Apr-16 16:31N 50°46' W 001°06'612.1
2017-Apr-16 16:00N 50°40' W 001°04'713.4
2017-Apr-16 15:31N 50°35' W 001°10'714.7
2017-Apr-16 15:00N 50°28' W 001°16'815.6
2017-Apr-16 14:30N 50°22' W 001°23'10616.3
2017-Apr-16 07:58N 48°38' W 002°02'0 0.0
2017-Apr-16 06:02N 48°38' W 002°02'0 2.1
2017-Apr-16 05:55N 48°38' W 002°02'815.1
2017-Apr-16 05:24N 48°45' W 002°09'9013.0
2017-Apr-15 22:29N 50°12' W 001°35'714.1
2017-Apr-15 22:00N 50°17' W 001°29'714.4
2017-Apr-15 21:30N 50°23' W 001°22'714.4
2017-Apr-15 21:01N 50°29' W 001°15'714.2
2017-Apr-15 20:31N 50°35' W 001°09'713.4
2017-Apr-15 20:00N 50°40' W 001°04'611.5
2017-Apr-15 19:30N 50°46' W 001°05'3 5.3
2017-Apr-15 18:59N 50°49' W 001°06'0 0.0
2017-Apr-15 18:29N 50°49' W 001°06'0 0.0
2017-Apr-15 17:59N 50°49' W 001°06'0 0.0
2017-Apr-15 17:29N 50°49' W 001°06'0 0.0
2017-Apr-15 17:00N 50°49' W 001°06'3 5.9
2017-Apr-15 16:30N 50°46' W 001°05'611.3
2017-Apr-15 16:00N 50°40' W 001°04'714.3
2017-Apr-15 15:30N 50°34' W 001°10'714.1
2017-Apr-15 15:00N 50°28' W 001°16'815.2
2017-Apr-15 14:30N 50°22' W 001°23'9218.2
2017-Apr-15 09:25N 48°52' W 001°59'92 7.9
2017-Apr-14 21:41N 50°22' W 001°25'314.1
2017-Apr-14 21:30N 50°24' W 001°22'713.8
2017-Apr-14 21:00N 50°29' W 001°15'713.4
2017-Apr-14 20:30N 50°35' W 001°09'612.8
2017-Apr-14 20:00N 50°40' W 001°04'611.4
2017-Apr-14 19:30N 50°46' W 001°05'3 5.7
2017-Apr-14 19:00N 50°49' W 001°06'0 0.2
2017-Apr-14 18:29N 50°49' W 001°06'0 0.0
2017-Apr-14 17:59N 50°49' W 001°06'0 0.0
2017-Apr-14 17:29N 50°49' W 001°06'0 0.3
2017-Apr-14 17:00N 50°49' W 001°06'4 8.4
2017-Apr-14 16:30N 50°45' W 001°04'4 8.7
2017-Apr-14 16:01N 50°40' W 001°04'713.6
2017-Apr-14 15:30N 50°34' W 001°09'815.8
2017-Apr-14 15:00N 50°28' W 001°16'2918.0
2017-Apr-14 13:24N 50°04' W 001°41'5118.8
2017-Apr-14 10:42N 49°15' W 001°60'1121.2
2017-Apr-14 10:10N 49°05' W 001°51'619.3
2017-Apr-14 09:53N 48°60' W 001°54'820.0
2017-Apr-14 09:29N 48°53' W 001°59'919.7
2017-Apr-14 09:00N 48°43' W 002°01'5 1.7
2017-Apr-14 06:10N 48°38' W 002°02'1 3.7
2017-Apr-14 05:59N 48°39' W 002°03'  

Dump ship's entire track history